createdAt,value
2018-04-06T00:00:07.523Z,52.40
2018-04-06T00:02:35.250Z,52.20
2018-04-06T00:05:02.968Z,52.50
2018-04-06T00:07:30.712Z,52.30
2018-04-06T00:09:58.420Z,52.50
2018-04-06T00:12:26.131Z,52.40
2018-04-06T00:14:53.837Z,52.20
2018-04-06T00:17:22.317Z,52.70
2018-04-06T00:19:50.028Z,52.10
2018-04-06T00:22:17.737Z,52.30
2018-04-06T00:24:45.462Z,52.30
2018-04-06T00:27:13.163Z,52.10
2018-04-06T00:29:40.884Z,52.20
2018-04-06T00:32:08.602Z,52.20
2018-04-06T00:34:36.655Z,52.70
2018-04-06T00:37:04.369Z,52.30
2018-04-06T00:39:32.089Z,52.20
2018-04-06T00:41:59.801Z,52.30
2018-04-06T00:44:27.517Z,52.10
2018-04-06T00:46:55.242Z,52.40
2018-04-06T00:49:22.948Z,52.40
2018-04-06T00:51:50.657Z,52.40
2018-04-06T00:54:18.368Z,52.40
2018-04-06T00:56:46.098Z,52.40
2018-04-06T00:59:13.813Z,52.30
2018-04-06T01:01:41.531Z,52.40
2018-04-06T01:04:09.228Z,52.50
2018-04-06T01:06:36.948Z,52.30
2018-04-06T01:09:04.668Z,52.20
2018-04-06T01:11:32.367Z,52.30
2018-04-06T01:14:00.081Z,52.40
2018-04-06T01:16:27.797Z,52.30
2018-04-06T01:18:55.496Z,52.40
2018-04-06T01:21:23.196Z,52.50
2018-04-06T01:23:50.908Z,52.40
2018-04-06T01:26:18.714Z,52.50
2018-04-06T01:28:46.415Z,52.40
2018-04-06T01:31:14.131Z,52.40
2018-04-06T01:33:41.849Z,52.40
2018-04-06T01:36:09.595Z,52.50
2018-04-06T01:38:37.316Z,52.60
2018-04-06T01:41:05.034Z,52.50
2018-04-06T01:43:32.741Z,52.40
2018-04-06T01:46:00.501Z,52.40
2018-04-06T01:48:28.197Z,52.20
2018-04-06T01:50:55.917Z,52.30
2018-04-06T01:53:24.404Z,51.60
2018-04-06T01:55:52.113Z,51.60
2018-04-06T01:58:19.817Z,51.50
2018-04-06T02:00:47.529Z,51.50
2018-04-06T02:03:15.244Z,51.50
2018-04-06T02:05:42.943Z,51.30
2018-04-06T02:08:10.665Z,51.30
2018-04-06T02:10:38.381Z,51.30
2018-04-06T02:13:06.090Z,51.40
2018-04-06T02:15:33.810Z,51.20
2018-04-06T02:18:02.738Z,51.10
2018-04-06T02:20:30.457Z,51.10
2018-04-06T02:22:58.177Z,51.00
2018-04-06T02:25:25.885Z,51.10
2018-04-06T02:27:53.600Z,51.00
2018-04-06T02:30:21.311Z,50.90
2018-04-06T02:32:49.784Z,51.00
2018-04-06T02:35:17.507Z,50.90
2018-04-06T02:37:45.290Z,51.00
2018-04-06T02:40:12.997Z,51.10
2018-04-06T02:42:41.455Z,51.00
2018-04-06T02:45:09.179Z,51.10
2018-04-06T02:47:37.351Z,51.10
2018-04-06T02:50:05.070Z,51.00
2018-04-06T02:52:32.781Z,51.00
2018-04-06T02:55:00.507Z,51.10
2018-04-06T02:57:28.972Z,51.10
2018-04-06T02:59:56.688Z,51.10
2018-04-06T03:02:24.403Z,51.00
2018-04-06T03:04:52.126Z,51.00
2018-04-06T03:07:19.851Z,51.00
2018-04-06T03:09:47.570Z,50.90
2018-04-06T03:12:15.267Z,50.80
2018-04-06T03:14:42.992Z,50.80
2018-04-06T03:17:10.693Z,50.90
2018-04-06T03:19:38.418Z,51.00
2018-04-06T03:22:06.358Z,50.90
2018-04-06T03:24:34.050Z,50.90
2018-04-06T03:27:01.803Z,50.90
2018-04-06T03:29:29.511Z,50.70
2018-04-06T03:31:57.226Z,50.70
2018-04-06T03:34:24.938Z,50.70
2018-04-06T03:36:52.641Z,50.80
2018-04-06T03:39:21.547Z,50.70
2018-04-06T03:41:50.008Z,50.80
2018-04-06T03:44:17.705Z,50.70
2018-04-06T03:46:45.416Z,50.80
2018-04-06T03:49:13.125Z,50.80
2018-04-06T03:51:40.832Z,50.80
2018-04-06T03:54:08.526Z,50.80
2018-04-06T03:56:36.238Z,50.90
2018-04-06T03:59:03.952Z,50.80
2018-04-06T04:01:31.666Z,50.70
2018-04-06T04:03:59.388Z,50.70
2018-04-06T04:06:27.117Z,50.60
2018-04-06T04:08:54.835Z,50.70
2018-04-06T04:11:22.575Z,50.80
2018-04-06T04:13:50.276Z,50.80
2018-04-06T04:16:18.758Z,50.80
2018-04-06T04:18:46.454Z,50.80
2018-04-06T04:21:14.169Z,50.70
2018-04-06T04:23:41.872Z,50.90
2018-04-06T04:26:09.574Z,50.80
2018-04-06T04:28:38.046Z,50.90
2018-04-06T04:31:05.765Z,50.90
2018-04-06T04:33:33.460Z,50.70
2018-04-06T04:36:01.966Z,50.70
2018-04-06T04:38:30.091Z,50.60
2018-04-06T04:40:59.272Z,50.50
2018-04-06T04:43:27.165Z,50.70
2018-04-06T04:48:44.496Z,50.50
2018-04-06T04:51:12.968Z,50.60
2018-04-06T04:53:40.720Z,50.50
2018-04-06T04:56:20.664Z,50.60
2018-04-06T04:58:49.211Z,51.10
2018-04-06T05:01:16.925Z,50.70
2018-04-06T05:03:44.654Z,51.00
2018-04-06T05:06:12.405Z,50.80
2018-04-06T05:08:40.139Z,50.80
2018-04-06T05:11:07.839Z,50.90
2018-04-06T05:13:35.565Z,51.10
2018-04-06T05:16:03.298Z,51.30
2018-04-06T05:18:31.043Z,51.10
2018-04-06T05:20:58.765Z,51.00
2018-04-06T05:23:26.476Z,51.20
2018-04-06T05:25:54.186Z,51.30
2018-04-06T05:28:21.902Z,51.60
2018-04-06T05:30:51.340Z,51.50
2018-04-06T05:33:19.075Z,51.70
2018-04-06T05:35:46.783Z,51.80
2018-04-06T05:38:14.506Z,52.10
2018-04-06T05:40:42.395Z,52.20
2018-04-06T05:43:11.490Z,52.30
2018-04-06T05:45:39.334Z,52.40
2018-04-06T05:48:07.234Z,52.50
2018-04-06T05:50:34.944Z,53.20
2018-04-06T05:53:04.405Z,52.30
2018-04-06T05:55:32.202Z,52.30
2018-04-06T05:57:59.955Z,52.30
2018-04-06T06:00:27.691Z,53.00
2018-04-06T06:02:55.402Z,53.30
2018-04-06T06:05:23.117Z,53.10
2018-04-06T06:07:50.824Z,52.50
2018-04-06T06:10:18.587Z,52.40
2018-04-06T06:13:00.900Z,52.40
2018-04-06T06:15:28.647Z,52.50
2018-04-06T06:17:56.365Z,52.00
2018-04-06T06:20:24.844Z,53.50
2018-04-06T06:22:52.605Z,53.40
2018-04-06T06:25:20.335Z,52.70
2018-04-06T06:27:48.092Z,52.80
2018-04-06T06:30:17.694Z,52.80
2018-04-06T06:32:45.472Z,52.40
2018-04-06T06:35:13.212Z,55.30
2018-04-06T06:37:40.948Z,53.50
2018-04-06T06:40:09.637Z,51.50
2018-04-06T06:42:38.163Z,51.80
2018-04-06T06:45:06.352Z,51.80
2018-04-06T06:47:34.088Z,51.80
2018-04-06T06:50:01.807Z,51.90
2018-04-06T06:52:29.562Z,52.40
2018-04-06T06:54:57.940Z,52.30
2018-04-06T06:57:25.647Z,51.90
2018-04-06T06:59:53.361Z,52.20
2018-04-06T07:02:21.066Z,52.20
2018-04-06T07:04:49.621Z,52.30
2018-04-06T07:07:17.350Z,52.50
2018-04-06T07:09:45.209Z,52.40
2018-04-06T07:12:12.934Z,54.40
2018-04-06T07:14:41.462Z,52.20
2018-04-06T07:17:09.340Z,52.20
2018-04-06T07:19:37.053Z,52.00
2018-04-06T07:22:04.822Z,53.20
2018-04-06T07:24:32.592Z,52.70
2018-04-06T07:27:00.427Z,52.40
2018-04-06T07:29:28.327Z,52.70
2018-04-06T07:31:56.060Z,53.80
2018-04-06T07:34:23.824Z,52.80
2018-04-06T07:36:51.549Z,52.40
2018-04-06T07:39:19.523Z,52.90
2018-04-06T07:41:48.821Z,53.30
2018-04-06T07:44:17.466Z,52.60
2018-04-06T07:46:46.224Z,52.50
2018-04-06T07:49:15.039Z,52.40
2018-04-06T07:51:42.908Z,52.90
2018-04-06T07:54:10.679Z,53.10
2018-04-06T07:56:39.579Z,52.50
2018-04-06T07:59:07.412Z,52.90
2018-04-06T08:01:36.523Z,53.40
2018-04-06T08:04:04.274Z,53.50
2018-04-06T08:06:32.133Z,53.60
2018-04-06T08:08:59.858Z,54.50
2018-04-06T08:11:27.831Z,55.30
2018-04-06T08:13:55.573Z,53.00
2018-04-06T08:16:23.313Z,52.80
2018-04-06T08:18:51.104Z,58.30
2018-04-06T08:21:18.841Z,53.70
2018-04-06T08:23:46.573Z,52.40
2018-04-06T08:26:14.328Z,52.30
2018-04-06T08:28:42.058Z,53.40
2018-04-06T08:31:09.772Z,53.30
2018-04-06T08:33:37.627Z,53.10
2018-04-06T08:36:05.401Z,53.70
2018-04-06T08:38:33.131Z,52.70
2018-04-06T08:41:01.139Z,53.10
2018-04-06T08:43:29.626Z,55.00
2018-04-06T08:45:57.369Z,55.00
2018-04-06T08:48:25.900Z,57.30
2018-04-06T08:50:57.898Z,56.00
2018-04-06T08:53:26.466Z,53.70
2018-04-06T08:55:55.127Z,53.70
2018-04-06T08:58:22.933Z,54.10
2018-04-06T09:00:50.838Z,59.70
2018-04-06T09:03:18.548Z,55.00
2018-04-06T09:05:46.265Z,55.50
2018-04-06T09:08:13.988Z,56.00
2018-04-06T09:10:41.713Z,57.80
2018-04-06T09:13:09.562Z,57.30
2018-04-06T09:15:37.283Z,55.60
2018-04-06T09:18:04.997Z,59.20
2018-04-06T09:20:32.768Z,56.90
2018-04-06T09:23:00.493Z,55.10
2018-04-06T09:25:28.730Z,55.70
2018-04-06T09:27:56.459Z,58.40
2018-04-06T09:30:24.212Z,57.30
2018-04-06T09:32:51.964Z,56.40
2018-04-06T09:35:19.721Z,56.40
2018-04-06T09:37:47.436Z,59.40
2018-04-06T09:40:15.149Z,55.90
2018-04-06T09:42:42.885Z,56.10
2018-04-06T09:45:10.598Z,56.30
2018-04-06T09:47:38.628Z,58.50
2018-04-06T09:50:07.532Z,59.10
2018-04-06T09:52:35.236Z,57.00
2018-04-06T09:55:02.965Z,57.70
2018-04-06T09:57:31.441Z,61.50
2018-04-06T09:59:59.163Z,61.40
2018-04-06T10:02:26.913Z,57.60
2018-04-06T10:04:56.540Z,57.60
2018-04-06T10:07:24.250Z,57.10
2018-04-06T10:09:51.977Z,57.30
2018-04-06T10:12:19.684Z,58.30
2018-04-06T10:14:47.394Z,58.20
2018-04-06T10:17:15.105Z,57.70
2018-04-06T10:19:42.822Z,58.80
2018-04-06T10:22:10.537Z,60.00
2018-04-06T10:24:38.270Z,62.40
2018-04-06T10:27:05.999Z,60.10
2018-04-06T10:29:33.724Z,59.60
2018-04-06T10:32:01.432Z,58.40
2018-04-06T10:34:29.141Z,59.40
2018-04-06T10:37:13.273Z,59.60
2018-04-06T10:39:40.966Z,61.10
2018-04-06T10:42:08.678Z,58.70
2018-04-06T10:44:36.397Z,57.20
2018-04-06T10:47:04.113Z,59.00
2018-04-06T10:49:31.817Z,60.00
2018-04-06T10:52:00.355Z,59.70
2018-04-06T10:54:28.830Z,58.90
2018-04-06T10:56:56.537Z,58.70
2018-04-06T10:59:24.244Z,57.40
2018-04-06T11:01:51.965Z,58.80
2018-04-06T11:04:19.675Z,56.00
2018-04-06T11:06:47.383Z,58.10
2018-04-06T11:09:15.105Z,58.40
2018-04-06T11:11:42.827Z,58.00
2018-04-06T11:14:10.694Z,57.80
2018-04-06T11:16:38.410Z,57.40
2018-04-06T11:19:06.124Z,57.90
2018-04-06T11:21:33.835Z,55.90
2018-04-06T11:24:01.563Z,58.00
2018-04-06T11:26:29.281Z,57.50
2018-04-06T11:28:56.997Z,57.50
2018-04-06T11:31:30.206Z,56.30
2018-04-06T11:33:57.915Z,56.70
2018-04-06T11:36:25.634Z,55.20
2018-04-06T11:38:53.344Z,57.50
2018-04-06T11:41:21.813Z,56.40
2018-04-06T11:43:50.297Z,56.30
2018-04-06T11:46:18.025Z,56.30
2018-04-06T11:48:45.745Z,53.40
2018-04-06T11:51:14.226Z,57.40
2018-04-06T11:53:42.593Z,57.40
2018-04-06T11:56:11.085Z,54.70
2018-04-06T11:58:38.797Z,54.50
2018-04-06T12:01:06.854Z,56.00
2018-04-06T12:03:34.575Z,54.90
2018-04-06T12:06:02.308Z,57.20
2018-04-06T12:08:30.029Z,53.30
2018-04-06T12:10:58.492Z,57.50
2018-04-06T12:13:26.205Z,57.40
2018-04-06T12:15:53.917Z,55.70
2018-04-06T12:18:21.798Z,57.00
2018-04-06T12:20:49.530Z,53.30
2018-04-06T12:23:17.242Z,54.70
2018-04-06T12:25:45.723Z,56.90
2018-04-06T12:28:13.489Z,56.80
2018-04-06T12:30:41.226Z,56.80
2018-04-06T12:33:09.735Z,52.50
2018-04-06T12:35:38.217Z,57.20
2018-04-06T12:38:06.718Z,57.70
2018-04-06T12:40:34.437Z,57.00
2018-04-06T12:43:02.172Z,55.20
2018-04-06T12:45:29.870Z,54.40
2018-04-06T12:47:57.650Z,57.70
2018-04-06T12:50:26.612Z,57.50
2018-04-06T12:52:54.340Z,57.40
2018-04-06T12:55:23.469Z,57.40
2018-04-06T12:57:51.302Z,57.10
2018-04-06T13:00:19.030Z,56.00
2018-04-06T13:02:46.752Z,57.10
2018-04-06T13:05:14.456Z,57.30
2018-04-06T13:07:42.180Z,55.80
2018-04-06T13:10:10.688Z,55.70
2018-04-06T13:12:38.443Z,55.60
2018-04-06T13:15:06.194Z,56.40
2018-04-06T13:17:33.980Z,57.10
2018-04-06T13:20:01.686Z,56.90
2018-04-06T13:22:29.393Z,56.90
2018-04-06T13:24:57.119Z,56.80
2018-04-06T13:27:24.854Z,57.00
2018-04-06T13:30:00.921Z,56.60
2018-04-06T13:32:28.664Z,56.50
2018-04-06T13:34:56.390Z,56.50
2018-04-06T13:37:24.873Z,55.70
2018-04-06T13:39:53.386Z,54.50
2018-04-06T13:42:21.169Z,54.50
2018-04-06T13:44:51.459Z,55.80
2018-04-06T13:47:19.961Z,53.10
2018-04-06T13:49:47.690Z,53.10
2018-04-06T13:52:15.565Z,55.90
2018-04-06T13:54:44.866Z,54.50
2018-04-06T13:57:14.339Z,55.30
2018-04-06T13:59:44.481Z,55.20
2018-04-06T14:02:12.199Z,55.70
2018-04-06T14:04:39.919Z,54.80
2018-04-06T14:07:07.632Z,55.50
2018-04-06T14:09:35.409Z,55.80
2018-04-06T14:12:03.148Z,53.90
2018-04-06T14:14:31.640Z,54.00
2018-04-06T14:16:59.367Z,55.60
2018-04-06T14:19:27.094Z,55.00
2018-04-06T14:21:54.809Z,54.80
2018-04-06T14:24:22.527Z,56.10
2018-04-06T14:26:50.256Z,55.90
2018-04-06T14:29:17.982Z,54.70
2018-04-06T14:31:46.498Z,55.80
2018-04-06T14:34:14.220Z,55.90
2018-04-06T14:36:41.971Z,56.10
2018-04-06T14:39:09.931Z,55.40
2018-04-06T14:41:38.756Z,56.00
2018-04-06T14:44:06.782Z,54.80
2018-04-06T14:46:34.582Z,55.30
2018-04-06T14:49:02.333Z,55.50
2018-04-06T14:51:30.109Z,56.00
2018-04-06T14:53:57.858Z,56.40
2018-04-06T14:56:26.267Z,55.90
2018-04-06T14:58:54.326Z,55.60
2018-04-06T15:01:22.055Z,55.50
2018-04-06T15:03:49.850Z,55.10
2018-04-06T15:06:17.640Z,55.10
2018-04-06T15:08:45.388Z,54.60
2018-04-06T15:11:13.118Z,54.50
2018-04-06T15:13:42.257Z,54.50
2018-04-06T15:16:10.032Z,54.50
2018-04-06T15:18:37.831Z,55.00
2018-04-06T15:21:05.592Z,55.10
2018-04-06T15:23:33.326Z,55.20
2018-04-06T15:26:01.051Z,54.40
2018-04-06T15:28:28.822Z,53.30
2018-04-06T15:30:56.685Z,54.50
2018-04-06T15:33:25.186Z,52.00
2018-04-06T15:35:53.160Z,51.90
2018-04-06T15:38:21.032Z,54.40
2018-04-06T15:40:48.789Z,54.20
2018-04-06T15:43:17.251Z,54.30
2018-04-06T15:45:45.077Z,53.40
2018-04-06T15:48:13.230Z,54.30
2018-04-06T15:50:42.677Z,54.70
2018-04-06T15:53:11.642Z,54.70
2018-04-06T15:55:42.856Z,54.40
2018-04-06T15:58:12.273Z,52.30
2018-04-06T16:00:43.433Z,50.70
2018-04-06T16:03:13.886Z,54.10
2018-04-06T16:05:43.447Z,54.20
2018-04-06T16:08:15.760Z,54.50
2018-04-06T16:10:55.468Z,54.10
2018-04-06T16:13:24.148Z,54.40
2018-04-06T16:16:00.288Z,54.00
2018-04-06T16:18:28.055Z,54.90
2018-04-06T16:20:57.564Z,54.50
2018-04-06T16:26:05.505Z,54.80
2018-04-06T16:28:34.142Z,54.50
2018-04-06T16:31:01.873Z,54.50
2018-04-06T16:33:31.135Z,52.80
2018-04-06T16:35:59.515Z,52.80
2018-04-06T16:38:27.345Z,53.20
2018-04-06T16:40:56.094Z,51.60
2018-04-06T16:43:28.633Z,56.40
2018-04-06T16:45:56.870Z,56.30
2018-04-06T16:48:30.948Z,55.40
2018-04-06T16:51:02.582Z,55.60
2018-04-06T16:53:31.856Z,56.10
2018-04-06T16:55:59.839Z,56.20
2018-04-06T16:58:27.666Z,57.00
2018-04-06T17:00:56.873Z,54.00
2018-04-06T17:03:24.885Z,53.90
2018-04-06T17:05:52.613Z,51.60
2018-04-06T17:08:20.544Z,56.20
2018-04-06T17:10:48.599Z,50.30
2018-04-06T17:13:16.344Z,54.80
2018-04-06T17:15:45.905Z,57.30
2018-04-06T17:18:19.505Z,55.20
2018-04-06T17:20:49.002Z,57.30
2018-04-06T17:23:23.945Z,57.30
2018-04-06T17:25:52.926Z,53.90
2018-04-06T17:28:31.274Z,57.30
2018-04-06T17:30:59.843Z,50.30
2018-04-06T17:33:28.551Z,50.10
2018-04-06T17:38:29.586Z,57.10
2018-04-06T17:40:57.376Z,54.90
2018-04-06T17:43:25.951Z,45.60
2018-04-06T17:45:53.812Z,45.50
2018-04-06T17:48:21.537Z,46.80
2018-04-06T17:50:49.364Z,48.60
2018-04-06T17:53:17.905Z,54.70
2018-04-06T17:55:50.591Z,53.10
2018-04-06T17:58:18.455Z,45.70
2018-04-06T18:00:46.916Z,47.60
2018-04-06T18:03:15.843Z,49.90
2018-04-06T18:05:43.739Z,50.90
2018-04-06T18:08:14.715Z,49.40
2018-04-06T18:10:45.188Z,49.20
2018-04-06T18:13:14.056Z,47.20
2018-04-06T18:15:43.562Z,43.30
2018-04-06T18:18:11.838Z,45.70
2018-04-06T18:20:39.768Z,45.00
2018-04-06T18:23:09.159Z,44.70
2018-04-06T18:25:36.963Z,43.10
2018-04-06T18:28:05.595Z,44.60
2018-04-06T18:30:37.714Z,44.60
2018-04-06T18:33:06.295Z,49.70
2018-04-06T18:35:37.611Z,43.30
2018-04-06T18:38:09.925Z,43.30
2018-04-06T18:41:06.571Z,43.20
2018-04-06T18:43:35.078Z,43.40
2018-04-06T18:46:03.120Z,43.90
2018-04-06T18:48:30.935Z,44.40
2018-04-06T18:51:09.481Z,43.40
2018-04-06T18:53:37.287Z,43.30
2018-04-06T18:56:16.190Z,43.60
2018-04-06T18:58:46.259Z,43.50
2018-04-06T19:01:15.109Z,43.70
2018-04-06T19:03:43.915Z,43.70
2018-04-06T19:06:12.468Z,46.90
2018-04-06T19:08:41.141Z,47.00
2018-04-06T19:11:08.988Z,44.00
2018-04-06T19:13:37.404Z,44.10
2018-04-06T19:16:08.063Z,43.60
2018-04-06T19:18:49.117Z,46.60
2018-04-06T19:21:22.727Z,43.70
2018-04-06T19:23:50.588Z,43.60
2018-04-06T19:26:18.620Z,43.80
2018-04-06T19:28:46.394Z,43.90
2018-04-06T19:31:41.162Z,44.00
2018-04-06T19:37:04.157Z,44.20
2018-04-06T19:39:32.632Z,44.10
2018-04-06T19:42:00.543Z,44.40
2018-04-06T19:44:28.375Z,43.90
2018-04-06T19:46:57.072Z,44.10
2018-04-06T19:49:24.912Z,44.20
2018-04-06T19:51:52.699Z,44.20
2018-04-06T19:54:48.044Z,44.30
2018-04-06T19:57:17.628Z,44.40
2018-04-06T19:59:49.790Z,44.30
2018-04-06T20:02:17.653Z,44.50
2018-04-06T20:04:48.673Z,44.70
2018-04-06T20:07:26.364Z,45.00
2018-04-06T20:09:56.221Z,45.50
2018-04-06T20:12:31.468Z,45.00
2018-04-06T20:15:06.087Z,45.00
2018-04-06T20:17:33.894Z,45.00
2018-04-06T20:20:02.045Z,45.10
2018-04-06T20:22:30.948Z,45.20
2018-04-06T20:25:02.017Z,45.30
2018-04-06T20:27:30.605Z,45.20
2018-04-06T20:29:58.468Z,45.30
2018-04-06T20:32:27.244Z,45.50
2018-04-06T20:34:55.855Z,45.50
2018-04-06T20:37:23.697Z,45.60
2018-04-06T20:39:52.181Z,45.60
2018-04-06T20:42:21.234Z,45.60
2018-04-06T20:44:51.921Z,45.80
2018-04-06T20:50:26.192Z,45.90
2018-04-06T20:52:55.512Z,46.00
2018-04-06T20:55:24.061Z,46.00
2018-04-06T20:57:59.614Z,46.00
2018-04-06T21:14:14.201Z,45.80
2018-04-06T21:16:42.744Z,46.00
2018-04-06T21:19:10.468Z,46.30
2018-04-06T21:21:38.731Z,46.40
2018-04-06T21:24:07.604Z,46.50
2018-04-06T21:26:35.356Z,46.60
2018-04-06T21:29:03.628Z,46.50
2018-04-06T21:31:31.472Z,46.50
2018-04-06T21:33:59.252Z,46.60
2018-04-06T21:36:28.402Z,46.70
2018-04-06T21:38:56.176Z,46.70
2018-04-06T21:41:24.937Z,46.70
2018-04-06T21:43:52.698Z,46.70
2018-04-06T21:46:20.450Z,46.70
2018-04-06T21:48:48.193Z,46.80
2018-04-06T21:51:15.913Z,46.80
2018-04-06T21:53:44.154Z,47.00
2018-04-06T21:56:11.893Z,47.00
2018-04-06T21:58:39.611Z,47.30
2018-04-06T22:01:07.357Z,47.40
2018-04-06T22:03:35.104Z,47.30
2018-04-06T22:06:02.846Z,47.40
2018-04-06T22:08:30.578Z,47.40
2018-04-06T22:10:58.333Z,47.40
2018-04-06T22:13:26.085Z,47.30
2018-04-06T22:15:53.949Z,47.30
2018-04-06T22:18:23.229Z,47.40
2018-04-06T22:20:52.098Z,47.40
2018-04-06T22:23:21.669Z,47.40
2018-04-06T22:25:49.394Z,47.60
2018-04-06T22:28:17.115Z,47.50
2018-04-06T22:30:44.864Z,47.40
2018-04-06T22:33:12.605Z,48.00
2018-04-06T22:35:42.414Z,47.50
2018-04-06T22:38:10.161Z,47.60
2018-04-06T22:40:38.769Z,47.70
2018-04-06T22:43:06.504Z,47.60
2018-04-06T22:45:34.218Z,47.80
2018-04-06T22:48:01.928Z,47.70
2018-04-06T22:50:29.642Z,47.70
2018-04-06T22:52:57.397Z,48.40
2018-04-06T22:55:25.104Z,47.80
2018-04-06T22:57:52.831Z,47.80
2018-04-06T23:00:21.500Z,47.80
2018-04-06T23:02:49.230Z,47.70
2018-04-06T23:05:17.657Z,47.70
2018-04-06T23:07:45.393Z,47.90
2018-04-06T23:10:13.130Z,47.80
2018-04-06T23:12:40.877Z,47.90
2018-04-06T23:15:08.583Z,47.90
2018-04-06T23:17:36.402Z,48.00
2018-04-06T23:20:04.211Z,48.10
2018-04-06T23:22:31.943Z,48.10
2018-04-06T23:24:59.660Z,48.10
2018-04-06T23:27:27.384Z,48.30
2018-04-06T23:29:55.105Z,48.40
2018-04-06T23:32:23.607Z,48.60
2018-04-06T23:34:51.322Z,48.50
2018-04-06T23:37:19.045Z,48.60
2018-04-06T23:39:46.777Z,48.60
2018-04-06T23:42:16.259Z,48.60
2018-04-06T23:44:43.999Z,48.60
2018-04-06T23:47:11.736Z,48.60
2018-04-06T23:49:45.224Z,48.80
2018-04-06T23:52:13.724Z,48.70
2018-04-06T23:54:41.469Z,48.60
2018-04-06T23:57:09.284Z,48.70
2018-04-06T23:59:37.016Z,48.60
